Time;durP1;ratioP1;P1;durP2;ratioP2;P2;SDS_P1;SDS_P2;PMS_P1;PMS_P2;Temp;Humidity;BMP_temperature;BMP_pressure;BME280_temperature;BME280_humidity;BME280_pressure;Samples;Min_cycle;Max_cycle;Signal;HPM_P1;HPM_P2
2022/03/09 00:02:16;;;;;;;;;;;;;;;;;;5052561;28;1386;-66
2022/03/09 00:04:42;;;;;;;;;;;;;;;;;;5052428;28;1321;-66
2022/03/09 00:07:08;;;;;;;;;;;;;;;;;;5052679;28;1131;-66
2022/03/09 00:09:35;;;;;;;;;;;;;;;;;;5052378;28;963;-67
2022/03/09 00:12:02;;;;;;;;;;;;;;;;;;5052425;28;1299;-66
2022/03/09 00:14:30;;;;;;;;;;;;;;;;;;5052289;28;1071;-66
2022/03/09 00:16:56;;;;;;;;;;;;;;;;;;5052330;28;1988;-66
2022/03/09 00:19:22;;;;;;;;;;;;;;;;;;5052265;28;1457;-66
2022/03/09 00:21:49;;;;;;;;;;;;;;;;;;5051810;28;1334;-66
2022/03/09 00:24:16;;;;;;;;;;;;;;;;;;5052422;28;1031;-66
2022/03/09 00:26:43;;;;;;;;;;;;;;;;;;5052334;28;965;-66
2022/03/09 00:29:09;;;;;;;;;;;;;;;;;;5052228;28;794;-66
2022/03/09 00:31:37;;;;;;;;;;;;;;;;;;5051704;28;1348;-66
2022/03/09 00:34:03;;;;;;;;;;;;;;;;;;5052137;28;955;-66
2022/03/09 00:36:29;;;;;;;;;;;;;;;;;;5051839;28;1971;-67
2022/03/09 00:38:56;;;;;;;;;;;;;;;;;;5052263;28;1083;-66
2022/03/09 00:41:22;;;;;;;;;;;;;;;;;;5052519;28;1337;-66
2022/03/09 00:43:48;;;;;;;;;;;;;;;;;;5052786;28;845;-66
2022/03/09 00:46:15;;;;;;;;;;;;;;;;;;5053287;28;1091;-66
2022/03/09 00:48:42;;;;;;;;;;;;;;;;;;5051885;28;917;-66
2022/03/09 00:51:08;;;;;;;;;;;;;;;;;;5051601;28;1127;-67
2022/03/09 00:53:34;;;;;;;;;;;;;;;;;;5051881;28;1293;-66
2022/03/09 00:56:01;;;;;;;;;;;;;;;;;;5051741;28;1973;-66
2022/03/09 00:58:27;;;;;;;;;;;;;;;;;;5051567;28;1116;-66
2022/03/09 01:00:53;;;;;;;;;;;;;;;;;;5051208;28;964;-66
2022/03/09 01:03:19;;;;;;;;;;;;;;;;;;5051890;28;1326;-66
2022/03/09 01:05:47;;;;;;;;;;;;;;;;;;5034873;28;1317;-67
2022/03/09 01:08:14;;;;;;;;;;;;;;;;;;5031723;28;849;-66
2022/03/09 01:10:40;;;;;;;;;;;;;;;;;;5031152;28;897;-66
2022/03/09 01:13:07;;;;;;;;;;;;;;;;;;5031333;28;1326;-66
2022/03/09 01:15:33;;;;;;;;;;;;;;;;;;5031428;28;759;-66
2022/03/09 01:17:59;;;;;;;;;;;;;;;;;;5031329;28;1994;-65
2022/03/09 01:20:25;;;;;;;;;;;;;;;;;;5031009;28;1071;-66
2022/03/09 01:22:53;;;;;;;;;;;;;;;;;;5031112;28;1294;-66
2022/03/09 01:25:19;;;;;;;;;;;;;;;;;;5031436;28;841;-66
2022/03/09 01:27:45;;;;;;;;;;;;;;;;;;5031214;28;1104;-66
2022/03/09 01:30:12;;;;;;;;;;;;;;;;;;5030537;28;976;-66
2022/03/09 01:32:38;;;;;;;;;;;;;;;;;;5013225;28;1492;-66
2022/03/09 01:35:05;;;;;;;;;;;;;;;;;;5030941;28;1447;-66
2022/03/09 01:37:31;;;;;;;;;;;;;;;;;;5039276;28;1969;-66
2022/03/09 01:39:58;;;;;;;;;;;;;;;;;;5050339;28;1146;-66
2022/03/09 01:42:24;;;;;;;;;;;;;;;;;;5050609;28;1386;-66
2022/03/09 01:44:51;;;;;;;;;;;;;;;;;;5050564;28;822;-66
2022/03/09 01:47:17;;;;;;;;;;;;;;;;;;5050426;28;1028;-66
2022/03/09 01:49:43;;;;;;;;;;;;;;;;;;5050394;28;973;-66
2022/03/09 01:52:09;;;;;;;;;;;;;;;;;;5032913;28;1331;-66
2022/03/09 01:54:35;;;;;;;;;;;;;;;;;;5050433;28;1145;-66
2022/03/09 01:57:03;;;;;;;;;;;;;;;;;;5050492;28;1973;-67
2022/03/09 01:59:29;;;;;;;;;;;;;;;;;;5050468;28;1095;-66
2022/03/09 02:01:56;;;;;;;;;;;;;;;;;;5049287;28;1349;-66
2022/03/09 02:04:23;;;;;;;;;;;;;;;;;;5050319;28;1403;-66
2022/03/09 02:06:49;;;;;;;;;;;;;;;;;;5050449;28;1083;-66
2022/03/09 02:11:59;;;;;;;;;;;;;;;;;;5050077;28;1322;-66
2022/03/09 02:14:31;;;;;;;;;;;;;;;;;;5050388;28;1122;-66
2022/03/09 02:16:58;;;;;;;;;;;;;;;;;;5032193;28;1973;-66
2022/03/09 02:19:24;;;;;;;;;;;;;;;;;;5049895;28;834;-66
2022/03/09 02:21:52;;;;;;;;;;;;;;;;;;5049953;28;1332;-66
2022/03/09 02:24:19;;;;;;;;;;;;;;;;;;5050351;28;1083;-66
2022/03/09 02:26:45;;;;;;;;;;;;;;;;;;5032572;28;1346;-66
2022/03/09 02:29:13;;;;;;;;;;;;;;;;;;5050120;28;1011;-66
2022/03/09 02:31:40;;;;;;;;;;;;;;;;;;5050138;28;1348;-66
2022/03/09 02:34:06;;;;;;;;;;;;;;;;;;5050057;28;968;-66
2022/03/09 02:36:32;;;;;;;;;;;;;;;;;;5050110;28;1971;-66
2022/03/09 02:38:59;;;;;;;;;;;;;;;;;;5049749;28;789;-66
2022/03/09 02:41:28;;;;;;;;;;;;;;;;;;5049727;28;1332;-67
2022/03/09 02:43:54;;;;;;;;;;;;;;;;;;5032420;28;1109;-66
2022/03/09 02:46:20;;;;;;;;;;;;;;;;;;5050080;28;1123;-66
2022/03/09 02:48:49;;;;;;;;;;;;;;;;;;5050152;28;814;-66
2022/03/09 02:51:15;;;;;;;;;;;;;;;;;;5050443;28;869;-67
2022/03/09 02:53:41;;;;;;;;;;;;;;;;;;5050194;28;1408;-67
2022/03/09 02:56:08;;;;;;;;;;;;;;;;;;5049642;28;1135;-67
2022/03/09 02:58:35;;;;;;;;;;;;;;;;;;5049682;28;1918;-67
2022/03/09 03:01:01;;;;;;;;;;;;;;;;;;5049406;28;1008;-67
2022/03/09 03:03:27;;;;;;;;;;;;;;;;;;5049872;28;1327;-67
2022/03/09 03:05:54;;;;;;;;;;;;;;;;;;5049732;28;1469;-67
2022/03/09 03:08:20;;;;;;;;;;;;;;;;;;5032098;28;1167;-67
2022/03/09 03:10:46;;;;;;;;;;;;;;;;;;5049629;28;901;-66
2022/03/09 03:13:12;;;;;;;;;;;;;;;;;;5052850;28;1401;-67
2022/03/09 03:15:40;;;;;;;;;;;;;;;;;;5053651;28;973;-67
2022/03/09 03:18:06;;;;;;;;;;;;;;;;;;5053646;28;1984;-66
2022/03/09 03:20:32;;;;;;;;;;;;;;;;;;5053318;28;877;-67
2022/03/09 03:22:58;;;;;;;;;;;;;;;;;;5053677;28;1306;-66
2022/03/09 03:25:24;;;;;;;;;;;;;;;;;;5074587;22;3640;-68
2022/03/09 03:27:51;;;;;;;;;;;;;;;;;;5063281;28;1126;-68
2022/03/09 03:30:17;;;;;;;;;;;;;;;;;;5070151;28;1305;-68
2022/03/09 03:32:44;;;;;;;;;;;;;;;;;;5075445;28;1201;-68
2022/03/09 03:35:11;;;;;;;;;;;;;;;;;;5074203;28;1317;-69
2022/03/09 03:37:37;;;;;;;;;;;;;;;;;;5073772;28;1914;-66
2022/03/09 03:40:03;;;;;;;;;;;;;;;;;;5073283;28;1284;-68
2022/03/09 03:42:30;;;;;;;;;;;;;;;;;;5073397;28;1133;-68
2022/03/09 03:44:56;;;;;;;;;;;;;;;;;;5057171;28;1325;-67
2022/03/09 03:47:22;;;;;;;;;;;;;;;;;;5047960;28;1707;-68
2022/03/09 03:49:50;;;;;;;;;;;;;;;;;;5060766;28;1006;-68
2022/03/09 03:52:16;;;;;;;;;;;;;;;;;;5052934;28;1170;-68
2022/03/09 03:54:42;;;;;;;;;;;;;;;;;;5053539;28;1337;-66
2022/03/09 03:57:08;;;;;;;;;;;;;;;;;;5035663;28;1930;-68
2022/03/09 03:59:35;;;;;;;;;;;;;;;;;;5053179;28;854;-68
2022/03/09 04:02:01;;;;;;;;;;;;;;;;;;5053190;28;805;-69
2022/03/09 04:04:27;;;;;;;;;;;;;;;;;;5053320;28;1094;-68
2022/03/09 04:06:55;;;;;;;;;;;;;;;;;;5072756;28;1396;-69
2022/03/09 04:09:22;;;;;;;;;;;;;;;;;;5072877;28;1129;-69
2022/03/09 04:11:48;;;;;;;;;;;;;;;;;;5073061;28;758;-68
2022/03/09 04:14:14;;;;;;;;;;;;;;;;;;5073883;28;1083;-68
2022/03/09 04:16:40;;;;;;;;;;;;;;;;;;5072952;28;1305;-68
2022/03/09 04:19:06;;;;;;;;;;;;;;;;;;5073086;28;1983;-69
2022/03/09 04:21:33;;;;;;;;;;;;;;;;;;5072503;28;1142;-68
2022/03/09 04:24:01;;;;;;;;;;;;;;;;;;5054483;28;1294;-68
2022/03/09 04:26:27;;;;;;;;;;;;;;;;;;5072286;28;1389;-69
2022/03/09 04:28:53;;;;;;;;;;;;;;;;;;5073227;28;1082;-68
2022/03/09 04:31:19;;;;;;;;;;;;;;;;;;5072368;28;806;-68
2022/03/09 04:33:46;;;;;;;;;;;;;;;;;;5072712;28;1082;-68
2022/03/09 04:36:13;;;;;;;;;;;;;;;;;;5072461;28;1353;-68
2022/03/09 04:38:40;;;;;;;;;;;;;;;;;;5054651;28;1921;-68
2022/03/09 04:41:07;;;;;;;;;;;;;;;;;;5049302;28;1540;-68
2022/03/09 04:43:34;;;;;;;;;;;;;;;;;;5051985;28;1136;-68
2022/03/09 04:46:00;;;;;;;;;;;;;;;;;;5052689;28;1490;-69
2022/03/09 04:48:26;;;;;;;;;;;;;;;;;;5052324;28;1091;-68
2022/03/09 04:50:52;;;;;;;;;;;;;;;;;;5052117;28;1087;-69
2022/03/09 04:53:19;;;;;;;;;;;;;;;;;;5052166;28;948;-69
2022/03/09 04:55:45;;;;;;;;;;;;;;;;;;5052424;28;1314;-67
2022/03/09 04:58:12;;;;;;;;;;;;;;;;;;5052061;28;1914;-67
2022/03/09 05:00:38;;;;;;;;;;;;;;;;;;5051755;28;1083;-67
2022/03/09 05:03:05;;;;;;;;;;;;;;;;;;5052431;28;1083;-68
2022/03/09 05:05:31;;;;;;;;;;;;;;;;;;5052229;28;1384;-68
2022/03/09 05:07:57;;;;;;;;;;;;;;;;;;5052273;28;953;-68
2022/03/09 05:10:23;;;;;;;;;;;;;;;;;;5052066;28;748;-68
2022/03/09 05:12:50;;;;;;;;;;;;;;;;;;5052206;28;1075;-68
2022/03/09 05:15:18;;;;;;;;;;;;;;;;;;5048309;28;1463;-68
2022/03/09 05:17:44;;;;;;;;;;;;;;;;;;5037652;28;1930;-68
2022/03/09 05:20:11;;;;;;;;;;;;;;;;;;5047774;28;1546;-69
2022/03/09 05:22:37;;;;;;;;;;;;;;;;;;5014500;28;910;-68
2022/03/09 05:25:04;;;;;;;;;;;;;;;;;;5032959;28;1603;-68
2022/03/09 05:27:30;;;;;;;;;;;;;;;;;;5035180;28;1669;-68
2022/03/09 05:29:56;;;;;;;;;;;;;;;;;;5031583;28;1642;-67
2022/03/09 05:32:24;;;;;;;;;;;;;;;;;;5043464;28;1530;-68
2022/03/09 05:34:51;;;;;;;;;;;;;;;;;;5044738;28;1497;-68
2022/03/09 05:37:17;;;;;;;;;;;;;;;;;;5048189;28;1981;-68
2022/03/09 05:39:43;;;;;;;;;;;;;;;;;;5049033;28;933;-68
2022/03/09 05:42:09;;;;;;;;;;;;;;;;;;5045257;28;1606;-68
2022/03/09 05:44:36;;;;;;;;;;;;;;;;;;5029536;28;1020;-69
2022/03/09 05:47:02;;;;;;;;;;;;;;;;;;5044749;28;1516;-66
2022/03/09 05:49:30;;;;;;;;;;;;;;;;;;5047724;28;1664;-67
2022/03/09 05:51:56;;;;;;;;;;;;;;;;;;5012555;28;1566;-68
2022/03/09 05:54:23;;;;;;;;;;;;;;;;;;5029914;28;934;-68
2022/03/09 05:56:49;;;;;;;;;;;;;;;;;;5043518;28;1581;-68
2022/03/09 05:59:15;;;;;;;;;;;;;;;;;;5029075;28;1914;-69
2022/03/09 06:01:41;;;;;;;;;;;;;;;;;;5043457;28;1570;-69
2022/03/09 06:04:08;;;;;;;;;;;;;;;;;;5049024;28;1103;-69
2022/03/09 06:06:35;;;;;;;;;;;;;;;;;;5022123;28;1562;-69
2022/03/09 06:09:01;;;;;;;;;;;;;;;;;;5029677;28;1075;-69
2022/03/09 06:11:28;;;;;;;;;;;;;;;;;;5042483;28;1609;-68
2022/03/09 06:13:54;;;;;;;;;;;;;;;;;;5047927;28;1618;-69
2022/03/09 06:16:20;;;;;;;;;;;;;;;;;;5047798;28;1586;-69
2022/03/09 06:18:47;;;;;;;;;;;;;;;;;;5050794;28;1926;-68
2022/03/09 06:21:13;;;;;;;;;;;;;;;;;;5021169;28;1653;-67
2022/03/09 06:23:40;;;;;;;;;;;;;;;;;;5032293;28;1595;-69
2022/03/09 06:26:07;;;;;;;;;;;;;;;;;;5037823;28;1555;-67
2022/03/09 06:28:33;;;;;;;;;;;;;;;;;;5039869;28;1570;-69
2022/03/09 06:30:59;;;;;;;;;;;;;;;;;;5035885;28;2116;-70
2022/03/09 06:33:26;;;;;;;;;;;;;;;;;;5051490;28;1614;-70
2022/03/09 06:35:52;;;;;;;;;;;;;;;;;;5050105;28;1419;-69
2022/03/09 06:38:18;;;;;;;;;;;;;;;;;;5044446;28;1985;-66
2022/03/09 06:40:46;;;;;;;;;;;;;;;;;;5035651;28;1317;-68
2022/03/09 06:43:12;;;;;;;;;;;;;;;;;;5045819;28;1294;-68
2022/03/09 06:45:38;;;;;;;;;;;;;;;;;;5051290;28;1394;-69
2022/03/09 06:48:05;;;;;;;;;;;;;;;;;;5048526;28;1595;-69
2022/03/09 06:50:31;;;;;;;;;;;;;;;;;;5037109;28;1233;-69
2022/03/09 06:52:58;;;;;;;;;;;;;;;;;;5036771;28;1271;-68
2022/03/09 06:55:24;;;;;;;;;;;;;;;;;;5054370;28;1424;-68
2022/03/09 06:57:51;;;;;;;;;;;;;;;;;;5054302;28;1963;-68
2022/03/09 07:00:18;;;;;;;;;;;;;;;;;;5046721;28;1688;-68
2022/03/09 07:02:45;;;;;;;;;;;;;;;;;;5043414;28;1400;-69
2022/03/09 07:05:11;;;;;;;;;;;;;;;;;;5043066;28;1562;-69
2022/03/09 07:07:37;;;;;;;;;;;;;;;;;;5049460;28;1753;-69
2022/03/09 07:10:04;;;;;;;;;;;;;;;;;;5048893;28;968;-69
2022/03/09 07:12:30;;;;;;;;;;;;;;;;;;5050761;28;1622;-69
2022/03/09 07:14:58;;;;;;;;;;;;;;;;;;5034163;28;1294;-69
2022/03/09 07:17:24;;;;;;;;;;;;;;;;;;5052683;28;1423;-69
2022/03/09 07:19:51;;;;;;;;;;;;;;;;;;5034537;28;1926;-68
2022/03/09 07:22:17;;;;;;;;;;;;;;;;;;5037119;28;1388;-68
2022/03/09 07:24:43;;;;;;;;;;;;;;;;;;5050252;28;1669;-68
2022/03/09 07:27:09;;;;;;;;;;;;;;;;;;5039524;28;1511;-68
2022/03/09 07:29:36;;;;;;;;;;;;;;;;;;5037393;28;1574;-68
2022/03/09 07:32:03;;;;;;;;;;;;;;;;;;5044996;28;1384;-68
2022/03/09 07:34:30;;;;;;;;;;;;;;;;;;5042476;28;1630;-69
2022/03/09 07:36:58;;;;;;;;;;;;;;;;;;5043908;28;1582;-69
2022/03/09 07:39:26;;;;;;;;;;;;;;;;;;5032430;28;1910;-69
2022/03/09 07:41:52;;;;;;;;;;;;;;;;;;5052085;28;2237;-69
2022/03/09 07:44:18;;;;;;;;;;;;;;;;;;5058052;28;1071;-69
2022/03/09 07:46:44;;;;;;;;;;;;;;;;;;5053451;28;1381;-69
2022/03/09 07:49:12;;;;;;;;;;;;;;;;;;5053147;28;961;-69
2022/03/09 07:51:38;;;;;;;;;;;;;;;;;;5036247;28;1602;-69
2022/03/09 07:54:06;;;;;;;;;;;;;;;;;;5044163;28;1136;-68
2022/03/09 07:56:32;;;;;;;;;;;;;;;;;;5038413;28;1475;-68
2022/03/09 07:58:58;;;;;;;;;;;;;;;;;;5041179;28;1919;-68
2022/03/09 08:01:24;;;;;;;;;;;;;;;;;;5052221;28;1570;-68
2022/03/09 08:03:51;;;;;;;;;;;;;;;;;;5053058;28;1083;-66
2022/03/09 08:06:18;;;;;;;;;;;;;;;;;;5052736;28;1353;-67
2022/03/09 08:08:44;;;;;;;;;;;;;;;;;;5045446;28;1455;-67
2022/03/09 08:11:11;;;;;;;;;;;;;;;;;;5033561;28;1590;-67
2022/03/09 08:13:37;;;;;;;;;;;;;;;;;;5053672;28;1476;-67
2022/03/09 08:16:03;;;;;;;;;;;;;;;;;;5073193;28;1375;-68
2022/03/09 08:18:29;;;;;;;;;;;;;;;;;;5052369;28;1918;-67
2022/03/09 08:20:55;;;;;;;;;;;;;;;;;;5051022;28;972;-67
2022/03/09 08:23:23;;;;;;;;;;;;;;;;;;5052740;28;1087;-67
2022/03/09 08:25:49;;;;;;;;;;;;;;;;;;5034290;28;1352;-68
2022/03/09 08:28:16;;;;;;;;;;;;;;;;;;5042299;28;1625;-67
2022/03/09 08:30:42;;;;;;;;;;;;;;;;;;5030169;28;1625;-67
2022/03/09 08:33:09;;;;;;;;;;;;;;;;;;5052552;28;1017;-67
2022/03/09 08:35:36;;;;;;;;;;;;;;;;;;5051698;28;1459;-67
2022/03/09 08:38:04;;;;;;;;;;;;;;;;;;5052419;28;1213;-68
2022/03/09 08:40:32;;;;;;;;;;;;;;;;;;5048600;28;1918;-68
2022/03/09 08:43:04;;;;;;;;;;;;;;;;;;5053738;28;1218;-69
2022/03/09 08:45:33;;;;;;;;;;;;;;;;;;5040298;28;1622;-68
2022/03/09 08:47:59;;;;;;;;;;;;;;;;;;5052931;28;1650;-69
2022/03/09 08:50:26;;;;;;;;;;;;;;;;;;5052311;28;1922;-67
2022/03/09 08:52:52;;;;;;;;;;;;;;;;;;5052455;28;1082;-68
2022/03/09 08:55:18;;;;;;;;;;;;;;;;;;5051474;28;1626;-68
2022/03/09 08:57:46;;;;;;;;;;;;;;;;;;5051495;28;2503;-68
2022/03/09 09:00:13;;;;;;;;;;;;;;;;;;5050959;28;1361;-68
2022/03/09 09:02:39;;;;;;;;;;;;;;;;;;5048212;28;1602;-68
2022/03/09 09:05:06;;;;;;;;;;;;;;;;;;5051993;28;1405;-69
2022/03/09 09:07:32;;;;;;;;;;;;;;;;;;5051441;28;1298;-67
2022/03/09 09:09:58;;;;;;;;;;;;;;;;;;5050012;28;1914;-68
2022/03/09 09:12:24;;;;;;;;;;;;;;;;;;5061036;28;1633;-68
2022/03/09 09:14:52;;;;;;;;;;;;;;;;;;5052606;28;1582;-68
2022/03/09 09:17:18;;;;;;;;;;;;;;;;;;5051149;28;1574;-67
2022/03/09 09:19:44;;;;;;;;;;;;;;;;;;5051040;28;1088;-67
2022/03/09 09:22:10;;;;;;;;;;;;;;;;;;5048678;28;1292;-68
2022/03/09 09:24:37;;;;;;;;;;;;;;;;;;5042726;28;1634;-67
2022/03/09 09:27:03;;;;;;;;;;;;;;;;;;5094335;22;1987;-67
2022/03/09 09:29:30;;;;;;;;;;;;;;;;;;5090737;28;1981;-65
2022/03/09 09:31:58;;;;;;;;;;;;;;;;;;5106933;28;1394;-67
2022/03/09 09:34:24;;;;;;;;;;;;;;;;;;5108735;28;1256;-67
2022/03/09 09:36:52;;;;;;;;;;;;;;;;;;5100326;28;1437;-67
2022/03/09 09:39:18;;;;;;;;;;;;;;;;;;5110963;28;1525;-67
2022/03/09 09:41:47;;;;;;;;;;;;;;;;;;5092136;28;1462;-67
2022/03/09 09:44:13;;;;;;;;;;;;;;;;;;5111121;28;1078;-68
2022/03/09 09:46:41;;;;;;;;;;;;;;;;;;5103803;28;1640;-67
2022/03/09 09:49:10;;;;;;;;;;;;;;;;;;5099866;28;2067;-66
2022/03/09 09:51:37;;;;;;;;;;;;;;;;;;5105260;28;1308;-67
2022/03/09 09:54:03;;;;;;;;;;;;;;;;;;5109221;28;930;-68
2022/03/09 09:56:30;;;;;;;;;;;;;;;;;;5110605;28;1659;-67
2022/03/09 09:58:56;;;;;;;;;;;;;;;;;;5104208;28;1339;-67
2022/03/09 10:01:22;;;;;;;;;;;;;;;;;;5110590;28;890;-67
2022/03/09 10:03:48;;;;;;;;;;;;;;;;;;5110767;28;1091;-67
2022/03/09 10:06:16;;;;;;;;;;;;;;;;;;5110546;28;1362;-68
2022/03/09 10:08:43;;;;;;;;;;;;;;;;;;5110359;28;1568;-68
2022/03/09 10:11:09;;;;;;;;;;;;;;;;;;5110098;28;1639;-68
2022/03/09 10:13:37;;;;;;;;;;;;;;;;;;5109789;28;1674;-66
2022/03/09 10:16:08;;;;;;;;;;;;;;;;;;5109509;28;1343;-68
2022/03/09 10:18:34;;;;;;;;;;;;;;;;;;5110839;28;1038;-67
2022/03/09 10:21:08;;;;;;;;;;;;;;;;;;5110024;28;1409;-67
2022/03/09 10:23:37;;;;;;;;;;;;;;;;;;5110496;28;1117;-68
2022/03/09 10:26:03;;;;;;;;;;;;;;;;;;5108857;28;2036;-67
2022/03/09 10:28:29;;;;;;;;;;;;;;;;;;5110187;28;1378;-67
2022/03/09 10:30:55;;;;;;;;;;;;;;;;;;5110049;28;1918;-67
2022/03/09 10:33:22;;;;;;;;;;;;;;;;;;5110286;28;1373;-67
2022/03/09 10:35:48;;;;;;;;;;;;;;;;;;5105549;28;1408;-67
2022/03/09 10:38:25;;;;;;;;;;;;;;;;;;5102432;28;2702;-68
2022/03/09 10:40:52;;;;;;;;;;;;;;;;;;5109907;28;1553;-67
2022/03/09 10:43:19;;;;;;;;;;;;;;;;;;5110920;28;739;-67
2022/03/09 10:46:01;;;;;;;;;;;;;;;;;;5110057;28;1392;-67
2022/03/09 10:48:28;;;;;;;;;;;;;;;;;;5110206;28;1137;-67
2022/03/09 10:50:54;;;;;;;;;;;;;;;;;;5109813;28;1981;-67
2022/03/09 10:53:21;;;;;;;;;;;;;;;;;;5110627;28;1141;-66
2022/03/09 10:55:47;;;;;;;;;;;;;;;;;;5110446;28;1403;-67
2022/03/09 10:58:15;;;;;;;;;;;;;;;;;;5110328;28;1215;-67
2022/03/09 11:00:42;;;;;;;;;;;;;;;;;;5109758;28;1521;-67
2022/03/09 11:03:09;;;;;;;;;;;;;;;;;;5110138;28;1592;-67
2022/03/09 11:05:36;;;;;;;;;;;;;;;;;;5094010;28;1030;-68
2022/03/09 11:08:03;;;;;;;;;;;;;;;;;;5110103;28;1632;-67
2022/03/09 11:10:31;;;;;;;;;;;;;;;;;;5110147;28;1935;-67
2022/03/09 11:12:57;;;;;;;;;;;;;;;;;;5110549;28;1552;-66
2022/03/09 11:15:24;;;;;;;;;;;;;;;;;;5109507;28;1584;-66
2022/03/09 11:17:51;;;;;;;;;;;;;;;;;;5104449;28;1442;-68
2022/03/09 11:20:17;;;;;;;;;;;;;;;;;;5097389;28;1027;-67
2022/03/09 11:22:43;;;;;;;;;;;;;;;;;;5107464;28;1565;-66
2022/03/09 11:25:10;;;;;;;;;;;;;;;;;;5109563;28;1572;-67
2022/03/09 11:27:41;;;;;;;;;;;;;;;;;;5110161;28;1402;-67
2022/03/09 11:30:22;;;;;;;;;;;;;;;;;;5110069;28;1971;-66
2022/03/09 11:32:51;;;;;;;;;;;;;;;;;;5105495;28;1469;-67
2022/03/09 11:35:39;;;;;;;;;;;;;;;;;;5112650;28;1278;-67
2022/03/09 11:38:20;;;;;;;;;;;;;;;;;;5093064;28;1051;-66
2022/03/09 11:41:01;;;;;;;;;;;;;;;;;;5091784;28;1590;-66
2022/03/09 11:43:28;;;;;;;;;;;;;;;;;;5100463;28;1636;-65
2022/03/09 11:45:54;;;;;;;;;;;;;;;;;;5109623;28;1428;-67
2022/03/09 11:48:22;;;;;;;;;;;;;;;;;;5104106;28;1588;-67
2022/03/09 11:51:13;;;;;;;;;;;;;;;;;;5110523;28;1995;-67
2022/03/09 11:53:46;;;;;;;;;;;;;;;;;;5112797;28;1529;-67
2022/03/09 11:56:23;;;;;;;;;;;;;;;;;;5112941;28;1475;-68
2022/03/09 11:59:04;;;;;;;;;;;;;;;;;;5112910;28;1563;-69
2022/03/09 12:01:30;;;;;;;;;;;;;;;;;;5106388;28;1568;-67
2022/03/09 12:03:57;;;;;;;;;;;;;;;;;;5092966;28;1058;-68
2022/03/09 12:06:42;;;;;;;;;;;;;;;;;;5092767;28;1408;-67
2022/03/09 12:09:09;;;;;;;;;;;;;;;;;;5092060;28;1083;-68
2022/03/09 12:11:50;;;;;;;;;;;;;;;;;;5091819;28;1918;-68
2022/03/09 12:14:17;;;;;;;;;;;;;;;;;;5092909;28;1131;-68
2022/03/09 12:16:58;;;;;;;;;;;;;;;;;;5092476;28;1314;-68
2022/03/09 12:19:25;;;;;;;;;;;;;;;;;;5092143;28;1207;-68
2022/03/09 12:22:01;;;;;;;;;;;;;;;;;;5092417;28;905;-67
2022/03/09 12:24:31;;;;;;;;;;;;;;;;;;5092635;28;813;-68
2022/03/09 12:26:57;;;;;;;;;;;;;;;;;;5092548;28;1430;-68
2022/03/09 12:29:37;;;;;;;;;;;;;;;;;;5092505;28;967;-67
2022/03/09 12:32:05;;;;;;;;;;;;;;;;;;5092671;28;1059;-68
2022/03/09 12:34:35;;;;;;;;;;;;;;;;;;5097819;28;988;-69
2022/03/09 12:37:01;;;;;;;;;;;;;;;;;;5112056;28;1552;-67
2022/03/09 12:39:28;;;;;;;;;;;;;;;;;;5111855;28;1559;-67
2022/03/09 12:41:54;;;;;;;;;;;;;;;;;;5112649;28;1094;-68
2022/03/09 12:44:22;;;;;;;;;;;;;;;;;;5111841;28;1589;-67
2022/03/09 12:46:49;;;;;;;;;;;;;;;;;;5094522;28;1439;-68
2022/03/09 12:49:16;;;;;;;;;;;;;;;;;;5112639;28;968;-68
2022/03/09 12:51:51;;;;;;;;;;;;;;;;;;5112187;28;1918;-68
2022/03/09 12:54:28;;;;;;;;;;;;;;;;;;5112203;28;1643;-68
2022/03/09 12:56:55;;;;;;;;;;;;;;;;;;5108343;28;1404;-67
2022/03/09 12:59:21;;;;;;;;;;;;;;;;;;5092228;28;1102;-67
2022/03/09 13:01:53;;;;;;;;;;;;;;;;;;5091696;28;1023;-66
2022/03/09 13:04:20;;;;;;;;;;;;;;;;;;5106479;28;1545;-68
2022/03/09 13:06:47;;;;;;;;;;;;;;;;;;5109019;28;1813;-67
2022/03/09 13:09:21;;;;;;;;;;;;;;;;;;5105710;28;1148;-67
2022/03/09 13:11:47;;;;;;;;;;;;;;;;;;5096780;28;1985;-67
2022/03/09 13:14:14;;;;;;;;;;;;;;;;;;5104854;28;1421;-67
2022/03/09 13:16:40;;;;;;;;;;;;;;;;;;5091472;28;1301;-68
2022/03/09 13:19:07;;;;;;;;;;;;;;;;;;5099802;28;1589;-68
2022/03/09 13:21:33;;;;;;;;;;;;;;;;;;5111223;28;1588;-67
2022/03/09 13:23:59;;;;;;;;;;;;;;;;;;5111567;28;1413;-67
2022/03/09 13:26:28;;;;;;;;;;;;;;;;;;5109783;28;1419;-69
2022/03/09 13:28:55;;;;;;;;;;;;;;;;;;5103446;28;1022;-69
2022/03/09 13:31:21;;;;;;;;;;;;;;;;;;5092236;28;1940;-69
2022/03/09 13:33:48;;;;;;;;;;;;;;;;;;5111632;28;1632;-68
2022/03/09 13:36:14;;;;;;;;;;;;;;;;;;5105354;28;1401;-68
2022/03/09 13:38:42;;;;;;;;;;;;;;;;;;5111412;28;1450;-68
2022/03/09 13:41:09;;;;;;;;;;;;;;;;;;5110668;28;1082;-66
2022/03/09 13:43:37;;;;;;;;;;;;;;;;;;5110978;28;1149;-68
2022/03/09 13:46:11;;;;;;;;;;;;;;;;;;5107981;28;1446;-69
2022/03/09 13:48:37;;;;;;;;;;;;;;;;;;5110661;28;1620;-68
2022/03/09 13:51:04;;;;;;;;;;;;;;;;;;5111334;28;1913;-69
2022/03/09 13:53:30;;;;;;;;;;;;;;;;;;5098464;28;996;-68
2022/03/09 13:55:56;;;;;;;;;;;;;;;;;;5090678;28;1391;-68
2022/03/09 13:58:23;;;;;;;;;;;;;;;;;;5102609;28;1577;-68
2022/03/09 14:00:51;;;;;;;;;;;;;;;;;;5090658;28;1137;-68
2022/03/09 14:03:18;;;;;;;;;;;;;;;;;;5101393;28;1749;-67
2022/03/09 14:05:45;;;;;;;;;;;;;;;;;;5110465;28;1358;-67
2022/03/09 14:08:13;;;;;;;;;;;;;;;;;;5108208;28;1405;-67
2022/03/09 14:10:40;;;;;;;;;;;;;;;;;;5109327;28;1985;-67
2022/03/09 14:13:08;;;;;;;;;;;;;;;;;;5111154;28;1090;-68
2022/03/09 14:15:34;;;;;;;;;;;;;;;;;;5108967;28;1556;-69
2022/03/09 14:18:02;;;;;;;;;;;;;;;;;;5110931;28;1576;-67
2022/03/09 14:20:28;;;;;;;;;;;;;;;;;;5103919;28;1450;-68
2022/03/09 14:22:54;;;;;;;;;;;;;;;;;;5093022;28;1182;-69
2022/03/09 14:25:21;;;;;;;;;;;;;;;;;;5110565;28;1628;-70
2022/03/09 14:27:47;;;;;;;;;;;;;;;;;;5110062;28;1622;-69
2022/03/09 14:30:14;;;;;;;;;;;;;;;;;;5092898;28;1921;-68
2022/03/09 14:32:40;;;;;;;;;;;;;;;;;;5090635;28;1026;-68
2022/03/09 14:35:09;;;;;;;;;;;;;;;;;;5095457;28;1355;-69
2022/03/09 14:37:35;;;;;;;;;;;;;;;;;;5085271;28;1612;-68
2022/03/09 14:40:02;;;;;;;;;;;;;;;;;;5090275;28;1023;-68
2022/03/09 14:42:28;;;;;;;;;;;;;;;;;;5081166;28;897;-67
2022/03/09 14:44:57;;;;;;;;;;;;;;;;;;5110853;28;1098;-67
2022/03/09 14:47:23;;;;;;;;;;;;;;;;;;5110326;28;1721;-68
2022/03/09 14:49:49;;;;;;;;;;;;;;;;;;5110326;28;1576;-68
2022/03/09 14:52:17;;;;;;;;;;;;;;;;;;5099127;28;1914;-69
2022/03/09 14:54:43;;;;;;;;;;;;;;;;;;5109910;28;1259;-69
2022/03/09 14:57:10;;;;;;;;;;;;;;;;;;5110362;28;1663;-68
2022/03/09 14:59:36;;;;;;;;;;;;;;;;;;5110115;28;1691;-69
2022/03/09 15:02:02;;;;;;;;;;;;;;;;;;5110060;28;1133;-69
2022/03/09 15:04:28;;;;;;;;;;;;;;;;;;5096060;28;1201;-69
2022/03/09 15:06:55;;;;;;;;;;;;;;;;;;5090190;28;1347;-68
2022/03/09 15:09:22;;;;;;;;;;;;;;;;;;5078447;28;1410;-67
2022/03/09 15:11:48;;;;;;;;;;;;;;;;;;5107178;28;1972;-69
2022/03/09 15:14:15;;;;;;;;;;;;;;;;;;5095207;28;1319;-68
2022/03/09 15:16:41;;;;;;;;;;;;;;;;;;5114224;28;1802;-68
2022/03/09 15:19:07;;;;;;;;;;;;;;;;;;5114690;28;1144;-69
2022/03/09 15:21:34;;;;;;;;;;;;;;;;;;5113588;28;1255;-68
2022/03/09 15:24:00;;;;;;;;;;;;;;;;;;5106340;28;897;-68
2022/03/09 15:29:33;;;;;;;;;;;;;;;;;;5009040;28;1453;-68
2022/03/09 15:31:59;;;;;;;;;;;;;;;;;;4976739;28;1919;-70
2022/03/09 15:34:27;;;;;;;;;;;;;;;;;;4995036;28;808;-69
2022/03/09 15:36:54;;;;;;;;;;;;;;;;;;4998558;28;1583;-69
2022/03/09 15:39:20;;;;;;;;;;;;;;;;;;5014489;28;1032;-69
2022/03/09 15:41:48;;;;;;;;;;;;;;;;;;5019594;28;911;-69
2022/03/09 15:44:14;;;;;;;;;;;;;;;;;;5032853;28;1273;-68
2022/03/09 15:46:40;;;;;;;;;;;;;;;;;;5013995;28;1314;-67
2022/03/09 15:49:06;;;;;;;;;;;;;;;;;;5014841;28;861;-69
2022/03/09 15:51:32;;;;;;;;;;;;;;;;;;5019319;28;2044;-68
2022/03/09 15:53:59;;;;;;;;;;;;;;;;;;5016541;28;1671;-67
2022/03/09 15:56:25;;;;;;;;;;;;;;;;;;5029974;28;1603;-67
2022/03/09 15:58:53;;;;;;;;;;;;;;;;;;5014857;28;1393;-67
2022/03/09 16:01:19;;;;;;;;;;;;;;;;;;5020964;28;1293;-68
2022/03/09 16:03:45;;;;;;;;;;;;;;;;;;5033601;28;1592;-67
2022/03/09 16:06:11;;;;;;;;;;;;;;;;;;5034220;28;787;-67
2022/03/09 16:08:37;;;;;;;;;;;;;;;;;;5034525;28;1361;-67
2022/03/09 16:11:04;;;;;;;;;;;;;;;;;;5032076;28;1973;-68
2022/03/09 16:13:31;;;;;;;;;;;;;;;;;;5013974;28;996;-68
2022/03/09 16:15:59;;;;;;;;;;;;;;;;;;5028807;28;947;-68
2022/03/09 16:18:25;;;;;;;;;;;;;;;;;;5019784;28;1603;-68
2022/03/09 16:20:51;;;;;;;;;;;;;;;;;;5022306;28;1614;-68
2022/03/09 16:23:18;;;;;;;;;;;;;;;;;;5025932;28;1688;-69
2022/03/09 16:25:44;;;;;;;;;;;;;;;;;;5019261;28;1599;-68
2022/03/09 16:28:10;;;;;;;;;;;;;;;;;;5025749;28;1606;-68
2022/03/09 16:30:36;;;;;;;;;;;;;;;;;;5024521;28;1088;-68
2022/03/09 16:33:04;;;;;;;;;;;;;;;;;;5029534;28;1985;-68
2022/03/09 16:35:35;;;;;;;;;;;;;;;;;;5021763;28;1681;-68
2022/03/09 16:38:01;;;;;;;;;;;;;;;;;;5029941;28;1579;-67
2022/03/09 16:40:28;;;;;;;;;;;;;;;;;;5019431;28;1551;-67
2022/03/09 16:42:54;;;;;;;;;;;;;;;;;;5033763;28;806;-68
2022/03/09 16:45:20;;;;;;;;;;;;;;;;;;5035928;28;1707;-68
2022/03/09 16:47:47;;;;;;;;;;;;;;;;;;5025768;28;1657;-67
2022/03/09 16:50:15;;;;;;;;;;;;;;;;;;5013495;28;1130;-68
2022/03/09 16:52:42;;;;;;;;;;;;;;;;;;5014434;28;1983;-67
2022/03/09 16:55:08;;;;;;;;;;;;;;;;;;5028124;28;1764;-68
2022/03/09 16:57:36;;;;;;;;;;;;;;;;;;5013556;28;1294;-67
2022/03/09 17:00:02;;;;;;;;;;;;;;;;;;5019192;28;1595;-68
2022/03/09 17:02:29;;;;;;;;;;;;;;;;;;5018627;28;1679;-67
2022/03/09 17:04:55;;;;;;;;;;;;;;;;;;5015279;28;1404;-67
2022/03/09 17:07:22;;;;;;;;;;;;;;;;;;5012274;28;1357;-68
2022/03/09 17:09:49;;;;;;;;;;;;;;;;;;5012278;28;1061;-68
2022/03/09 17:12:15;;;;;;;;;;;;;;;;;;5012536;28;1989;-69